sensor_id;sensor_type;location;lat;lon;timestamp;temperature;humidity
63648;DHT22;49792;48.744;9.176;2023-02-26T00:00:16;17.50;56.90
63648;DHT22;49792;48.744;9.176;2023-02-26T00:02:42;17.50;56.70
63648;DHT22;49792;48.744;9.176;2023-02-26T00:05:10;17.60;56.90
63648;DHT22;49792;48.744;9.176;2023-02-26T00:07:36;17.50;56.80
63648;DHT22;49792;48.744;9.176;2023-02-26T00:10:01;17.50;56.70
63648;DHT22;49792;48.744;9.176;2023-02-26T00:12:27;17.50;56.70
63648;DHT22;49792;48.744;9.176;2023-02-26T00:14:53;17.50;56.60
63648;DHT22;49792;48.744;9.176;2023-02-26T00:19:56;17.50;56.60
63648;DHT22;49792;48.744;9.176;2023-02-26T00:22:22;17.40;56.60
63648;DHT22;49792;48.744;9.176;2023-02-26T00:24:47;17.40;56.60
63648;DHT22;49792;48.744;9.176;2023-02-26T00:27:13;17.40;56.70
63648;DHT22;49792;48.744;9.176;2023-02-26T00:29:39;17.50;56.60
63648;DHT22;49792;48.744;9.176;2023-02-26T00:32:04;17.40;56.40
63648;DHT22;49792;48.744;9.176;2023-02-26T00:34:31;17.40;56.60
63648;DHT22;49792;48.744;9.176;2023-02-26T00:39:36;17.40;56.50
63648;DHT22;49792;48.744;9.176;2023-02-26T00:42:05;17.40;56.50
63648;DHT22;49792;48.744;9.176;2023-02-26T00:44:31;17.40;56.60
63648;DHT22;49792;48.744;9.176;2023-02-26T00:47:02;17.40;56.70
63648;DHT22;49792;48.744;9.176;2023-02-26T00:52:19;17.40;56.70
63648;DHT22;49792;48.744;9.176;2023-02-26T00:54:47;17.40;56.60
63648;DHT22;49792;48.744;9.176;2023-02-26T00:57:12;17.40;56.80
63648;DHT22;49792;48.744;9.176;2023-02-26T00:59:38;17.40;56.80
63648;DHT22;49792;48.744;9.176;2023-02-26T01:02:03;17.40;56.90
63648;DHT22;49792;48.744;9.176;2023-02-26T01:04:29;17.40;56.80
63648;DHT22;49792;48.744;9.176;2023-02-26T01:06:55;17.40;56.30
63648;DHT22;49792;48.744;9.176;2023-02-26T01:11:57;17.40;56.30
63648;DHT22;49792;48.744;9.176;2023-02-26T01:14:26;17.40;56.50
63648;DHT22;49792;48.744;9.176;2023-02-26T01:16:55;17.40;56.70
63648;DHT22;49792;48.744;9.176;2023-02-26T01:19:30;17.40;56.70
63648;DHT22;49792;48.744;9.176;2023-02-26T01:22:02;17.40;56.70
63648;DHT22;49792;48.744;9.176;2023-02-26T01:24:30;17.40;56.90
63648;DHT22;49792;48.744;9.176;2023-02-26T01:26:55;17.30;56.60
63648;DHT22;49792;48.744;9.176;2023-02-26T01:29:21;17.30;57.10
63648;DHT22;49792;48.744;9.176;2023-02-26T01:31:59;17.30;57.60
63648;DHT22;49792;48.744;9.176;2023-02-26T01:39:39;17.20;59.40
63648;DHT22;49792;48.744;9.176;2023-02-26T01:42:10;17.20;58.60
63648;DHT22;49792;48.744;9.176;2023-02-26T01:44:41;17.10;58.80
63648;DHT22;49792;48.744;9.176;2023-02-26T01:49:36;17.20;59.00
63648;DHT22;49792;48.744;9.176;2023-02-26T01:52:06;17.10;58.80
63648;DHT22;49792;48.744;9.176;2023-02-26T01:54:33;17.10;58.50
63648;DHT22;49792;48.744;9.176;2023-02-26T01:57:04;17.00;59.10
63648;DHT22;49792;48.744;9.176;2023-02-26T01:59:35;17.10;59.50
63648;DHT22;49792;48.744;9.176;2023-02-26T02:02:01;17.10;60.00
63648;DHT22;49792;48.744;9.176;2023-02-26T02:04:28;17.10;59.50
63648;DHT22;49792;48.744;9.176;2023-02-26T02:06:54;17.10;59.80
63648;DHT22;49792;48.744;9.176;2023-02-26T02:09:20;17.10;59.90
63648;DHT22;49792;48.744;9.176;2023-02-26T02:11:52;17.10;60.10
63648;DHT22;49792;48.744;9.176;2023-02-26T02:17:08;17.00;60.20
63648;DHT22;49792;48.744;9.176;2023-02-26T02:19:54;17.10;60.00
63648;DHT22;49792;48.744;9.176;2023-02-26T02:22:32;17.00;60.00
63648;DHT22;49792;48.744;9.176;2023-02-26T02:27:46;17.00;60.00
63648;DHT22;49792;48.744;9.176;2023-02-26T02:30:34;17.00;60.50
63648;DHT22;49792;48.744;9.176;2023-02-26T02:33:04;17.00;58.90
63648;DHT22;49792;48.744;9.176;2023-02-26T02:35:43;17.00;58.30
63648;DHT22;49792;48.744;9.176;2023-02-26T02:38:17;16.90;57.80
63648;DHT22;49792;48.744;9.176;2023-02-26T02:40:46;17.00;58.10
63648;DHT22;49792;48.744;9.176;2023-02-26T02:43:13;16.90;58.00
63648;DHT22;49792;48.744;9.176;2023-02-26T02:48:14;16.90;58.20
63648;DHT22;49792;48.744;9.176;2023-02-26T02:50:42;16.90;57.90
63648;DHT22;49792;48.744;9.176;2023-02-26T02:55:38;16.90;57.80
63648;DHT22;49792;48.744;9.176;2023-02-26T02:58:06;16.80;58.00
63648;DHT22;49792;48.744;9.176;2023-02-26T03:00:33;16.90;58.10
63648;DHT22;49792;48.744;9.176;2023-02-26T03:03:01;16.90;58.10
63648;DHT22;49792;48.744;9.176;2023-02-26T03:05:29;16.90;58.50
63648;DHT22;49792;48.744;9.176;2023-02-26T03:08:00;16.80;58.10
63648;DHT22;49792;48.744;9.176;2023-02-26T03:10:27;16.80;58.10
63648;DHT22;49792;48.744;9.176;2023-02-26T03:12:52;16.80;58.20
63648;DHT22;49792;48.744;9.176;2023-02-26T03:15:32;16.80;58.00
63648;DHT22;49792;48.744;9.176;2023-02-26T03:18:05;16.90;58.00
63648;DHT22;49792;48.744;9.176;2023-02-26T03:20:33;16.80;57.90
63648;DHT22;49792;48.744;9.176;2023-02-26T03:30:42;16.80;58.10
63648;DHT22;49792;48.744;9.176;2023-02-26T03:33:11;16.80;58.70
63648;DHT22;49792;48.744;9.176;2023-02-26T03:35:43;16.90;58.10
63648;DHT22;49792;48.744;9.176;2023-02-26T03:38:15;17.00;58.30
63648;DHT22;49792;48.744;9.176;2023-02-26T03:40:45;16.90;58.10
63648;DHT22;49792;48.744;9.176;2023-02-26T03:45:40;16.80;58.00
63648;DHT22;49792;48.744;9.176;2023-02-26T03:48:08;16.70;57.30
63648;DHT22;49792;48.744;9.176;2023-02-26T03:50:40;16.80;57.60
63648;DHT22;49792;48.744;9.176;2023-02-26T03:53:08;16.80;58.70
63648;DHT22;49792;48.744;9.176;2023-02-26T03:55:35;16.80;57.80
63648;DHT22;49792;48.744;9.176;2023-02-26T03:58:03;16.90;57.60
63648;DHT22;49792;48.744;9.176;2023-02-26T04:00:28;16.70;57.70
63648;DHT22;49792;48.744;9.176;2023-02-26T04:05:28;16.70;57.40
63648;DHT22;49792;48.744;9.176;2023-02-26T04:07:56;16.70;57.40
63648;DHT22;49792;48.744;9.176;2023-02-26T04:10:25;16.70;57.20
63648;DHT22;49792;48.744;9.176;2023-02-26T04:12:51;16.60;58.20
63648;DHT22;49792;48.744;9.176;2023-02-26T04:15:16;16.80;57.10
63648;DHT22;49792;48.744;9.176;2023-02-26T04:17:42;16.70;57.20
63648;DHT22;49792;48.744;9.176;2023-02-26T04:20:08;16.60;57.30
63648;DHT22;49792;48.744;9.176;2023-02-26T04:22:36;16.70;57.60
63648;DHT22;49792;48.744;9.176;2023-02-26T04:25:02;16.60;57.30
63648;DHT22;49792;48.744;9.176;2023-02-26T04:27:28;16.60;57.20
63648;DHT22;49792;48.744;9.176;2023-02-26T04:29:53;16.80;57.30
63648;DHT22;49792;48.744;9.176;2023-02-26T04:32:19;16.50;57.30
63648;DHT22;49792;48.744;9.176;2023-02-26T04:34:44;16.60;57.90
63648;DHT22;49792;48.744;9.176;2023-02-26T04:37:10;16.60;57.90
63648;DHT22;49792;48.744;9.176;2023-02-26T04:39:35;16.60;57.70
63648;DHT22;49792;48.744;9.176;2023-02-26T04:42:01;16.70;57.40
63648;DHT22;49792;48.744;9.176;2023-02-26T04:44:28;16.60;57.50
63648;DHT22;49792;48.744;9.176;2023-02-26T04:46:54;16.50;57.80
63648;DHT22;49792;48.744;9.176;2023-02-26T04:49:19;16.60;57.70
63648;DHT22;49792;48.744;9.176;2023-02-26T04:51:45;16.50;57.30
63648;DHT22;49792;48.744;9.176;2023-02-26T04:54:10;16.60;57.40
63648;DHT22;49792;48.744;9.176;2023-02-26T04:56:36;16.50;57.30
63648;DHT22;49792;48.744;9.176;2023-02-26T04:59:01;16.50;57.30
63648;DHT22;49792;48.744;9.176;2023-02-26T05:01:27;16.60;57.30
63648;DHT22;49792;48.744;9.176;2023-02-26T05:03:52;16.60;57.20
63648;DHT22;49792;48.744;9.176;2023-02-26T05:06:18;16.50;57.00
63648;DHT22;49792;48.744;9.176;2023-02-26T05:08:43;16.60;57.00
63648;DHT22;49792;48.744;9.176;2023-02-26T05:11:09;16.60;58.10
63648;DHT22;49792;48.744;9.176;2023-02-26T05:13:35;16.60;57.30
63648;DHT22;49792;48.744;9.176;2023-02-26T05:16:00;16.60;57.10
63648;DHT22;49792;48.744;9.176;2023-02-26T05:18:26;16.50;56.70
63648;DHT22;49792;48.744;9.176;2023-02-26T05:20:52;16.60;56.50
63648;DHT22;49792;48.744;9.176;2023-02-26T05:23:17;16.60;56.40
63648;DHT22;49792;48.744;9.176;2023-02-26T05:25:43;16.60;56.60
63648;DHT22;49792;48.744;9.176;2023-02-26T05:28:08;16.60;56.30
63648;DHT22;49792;48.744;9.176;2023-02-26T05:30:34;16.50;55.90
63648;DHT22;49792;48.744;9.176;2023-02-26T05:32:59;16.50;55.90
63648;DHT22;49792;48.744;9.176;2023-02-26T05:35:25;16.40;55.90
63648;DHT22;49792;48.744;9.176;2023-02-26T05:37:50;16.60;55.90
63648;DHT22;49792;48.744;9.176;2023-02-26T05:40:16;16.50;56.00
63648;DHT22;49792;48.744;9.176;2023-02-26T05:42:42;16.50;56.00
63648;DHT22;49792;48.744;9.176;2023-02-26T05:45:07;16.60;55.80
63648;DHT22;49792;48.744;9.176;2023-02-26T05:47:33;16.50;55.80
63648;DHT22;49792;48.744;9.176;2023-02-26T05:49:59;16.40;55.80
63648;DHT22;49792;48.744;9.176;2023-02-26T05:52:24;16.50;56.00
63648;DHT22;49792;48.744;9.176;2023-02-26T05:54:50;16.50;56.00
63648;DHT22;49792;48.744;9.176;2023-02-26T05:57:15;16.50;56.00
63648;DHT22;49792;48.744;9.176;2023-02-26T05:59:41;16.50;55.90
63648;DHT22;49792;48.744;9.176;2023-02-26T06:02:06;16.50;55.90
63648;DHT22;49792;48.744;9.176;2023-02-26T06:04:31;16.50;55.90
63648;DHT22;49792;48.744;9.176;2023-02-26T06:06:57;16.50;56.10
63648;DHT22;49792;48.744;9.176;2023-02-26T06:09:22;16.50;56.10
63648;DHT22;49792;48.744;9.176;2023-02-26T06:11:48;16.50;56.40
63648;DHT22;49792;48.744;9.176;2023-02-26T06:14:14;16.50;56.30
63648;DHT22;49792;48.744;9.176;2023-02-26T06:16:39;16.40;56.20
63648;DHT22;49792;48.744;9.176;2023-02-26T06:19:05;16.50;56.20
63648;DHT22;49792;48.744;9.176;2023-02-26T06:21:30;16.40;56.30
63648;DHT22;49792;48.744;9.176;2023-02-26T06:23:56;16.40;56.30
63648;DHT22;49792;48.744;9.176;2023-02-26T06:26:21;16.40;56.50
63648;DHT22;49792;48.744;9.176;2023-02-26T06:28:47;16.40;56.70
63648;DHT22;49792;48.744;9.176;2023-02-26T06:31:12;16.40;56.80
63648;DHT22;49792;48.744;9.176;2023-02-26T06:33:38;16.40;56.80
63648;DHT22;49792;48.744;9.176;2023-02-26T06:36:03;16.40;57.00
63648;DHT22;49792;48.744;9.176;2023-02-26T06:38:29;16.40;57.10
63648;DHT22;49792;48.744;9.176;2023-02-26T06:40:54;16.40;57.00
63648;DHT22;49792;48.744;9.176;2023-02-26T06:43:20;16.40;57.00
63648;DHT22;49792;48.744;9.176;2023-02-26T06:45:45;16.40;57.10
63648;DHT22;49792;48.744;9.176;2023-02-26T06:48:11;16.40;57.30
63648;DHT22;49792;48.744;9.176;2023-02-26T06:50:36;16.40;57.20
63648;DHT22;49792;48.744;9.176;2023-02-26T06:53:02;16.40;57.00
63648;DHT22;49792;48.744;9.176;2023-02-26T06:55:27;16.40;56.60
63648;DHT22;49792;48.744;9.176;2023-02-26T06:57:53;16.40;56.60
63648;DHT22;49792;48.744;9.176;2023-02-26T07:00:19;16.40;56.40
63648;DHT22;49792;48.744;9.176;2023-02-26T07:02:45;16.40;56.50
63648;DHT22;49792;48.744;9.176;2023-02-26T07:05:10;16.40;56.20
63648;DHT22;49792;48.744;9.176;2023-02-26T07:07:36;16.40;56.10
63648;DHT22;49792;48.744;9.176;2023-02-26T07:10:02;16.40;56.00
63648;DHT22;49792;48.744;9.176;2023-02-26T07:12:27;16.40;56.20
63648;DHT22;49792;48.744;9.176;2023-02-26T07:14:53;16.30;55.80
63648;DHT22;49792;48.744;9.176;2023-02-26T07:17:18;16.40;55.80
63648;DHT22;49792;48.744;9.176;2023-02-26T07:19:48;16.50;55.70
63648;DHT22;49792;48.744;9.176;2023-02-26T07:22:14;16.40;55.60
63648;DHT22;49792;48.744;9.176;2023-02-26T07:24:40;16.40;55.60
63648;DHT22;49792;48.744;9.176;2023-02-26T07:27:05;16.40;55.50
63648;DHT22;49792;48.744;9.176;2023-02-26T07:29:31;16.40;55.60
63648;DHT22;49792;48.744;9.176;2023-02-26T07:31:56;16.40;55.50
63648;DHT22;49792;48.744;9.176;2023-02-26T07:34:22;16.40;55.60
63648;DHT22;49792;48.744;9.176;2023-02-26T07:36:47;16.30;55.40
63648;DHT22;49792;48.744;9.176;2023-02-26T07:39:13;16.40;55.60
63648;DHT22;49792;48.744;9.176;2023-02-26T07:41:38;16.40;55.40
63648;DHT22;49792;48.744;9.176;2023-02-26T07:44:04;16.30;55.30
63648;DHT22;49792;48.744;9.176;2023-02-26T07:46:29;16.40;55.30
63648;DHT22;49792;48.744;9.176;2023-02-26T07:48:55;16.40;55.10
63648;DHT22;49792;48.744;9.176;2023-02-26T07:51:20;16.40;55.20
63648;DHT22;49792;48.744;9.176;2023-02-26T07:53:46;16.40;55.20
63648;DHT22;49792;48.744;9.176;2023-02-26T07:56:11;16.30;55.20
63648;DHT22;49792;48.744;9.176;2023-02-26T07:58:37;16.40;55.70
63648;DHT22;49792;48.744;9.176;2023-02-26T08:01:02;16.40;55.50
63648;DHT22;49792;48.744;9.176;2023-02-26T08:03:28;16.30;55.50
63648;DHT22;49792;48.744;9.176;2023-02-26T08:05:53;16.30;55.80
63648;DHT22;49792;48.744;9.176;2023-02-26T08:08:19;16.30;55.70
63648;DHT22;49792;48.744;9.176;2023-02-26T08:10:44;16.30;55.80
63648;DHT22;49792;48.744;9.176;2023-02-26T08:13:10;16.30;55.60
63648;DHT22;49792;48.744;9.176;2023-02-26T08:15:35;16.20;55.80
63648;DHT22;49792;48.744;9.176;2023-02-26T08:18:01;16.30;55.90
63648;DHT22;49792;48.744;9.176;2023-02-26T08:20:26;16.30;55.90
63648;DHT22;49792;48.744;9.176;2023-02-26T08:22:52;16.30;56.00
63648;DHT22;49792;48.744;9.176;2023-02-26T08:25:17;16.30;55.90
63648;DHT22;49792;48.744;9.176;2023-02-26T08:27:43;16.30;56.00
63648;DHT22;49792;48.744;9.176;2023-02-26T08:30:09;16.40;56.00
63648;DHT22;49792;48.744;9.176;2023-02-26T08:32:35;16.30;56.00
63648;DHT22;49792;48.744;9.176;2023-02-26T08:35:00;16.40;56.00
63648;DHT22;49792;48.744;9.176;2023-02-26T08:37:26;16.30;55.90
63648;DHT22;49792;48.744;9.176;2023-02-26T08:39:51;16.30;55.90
63648;DHT22;49792;48.744;9.176;2023-02-26T08:42:17;16.40;56.10
63648;DHT22;49792;48.744;9.176;2023-02-26T08:44:45;16.30;56.00
63648;DHT22;49792;48.744;9.176;2023-02-26T08:47:10;16.30;56.00
63648;DHT22;49792;48.744;9.176;2023-02-26T08:49:36;16.30;56.00
63648;DHT22;49792;48.744;9.176;2023-02-26T08:52:01;16.30;56.00
63648;DHT22;49792;48.744;9.176;2023-02-26T08:54:27;16.30;55.90
63648;DHT22;49792;48.744;9.176;2023-02-26T08:56:52;16.30;56.00
63648;DHT22;49792;48.744;9.176;2023-02-26T08:59:20;16.30;56.00
63648;DHT22;49792;48.744;9.176;2023-02-26T09:01:45;16.20;56.00
63648;DHT22;49792;48.744;9.176;2023-02-26T09:04:11;16.30;56.30
63648;DHT22;49792;48.744;9.176;2023-02-26T09:06:36;16.20;56.00
63648;DHT22;49792;48.744;9.176;2023-02-26T09:09:02;16.40;56.00
63648;DHT22;49792;48.744;9.176;2023-02-26T09:11:28;16.20;56.10
63648;DHT22;49792;48.744;9.176;2023-02-26T09:13:55;16.20;56.20
63648;DHT22;49792;48.744;9.176;2023-02-26T09:16:20;16.30;56.10
63648;DHT22;49792;48.744;9.176;2023-02-26T09:18:46;16.20;56.00
63648;DHT22;49792;48.744;9.176;2023-02-26T09:21:12;16.30;56.10
63648;DHT22;49792;48.744;9.176;2023-02-26T09:23:37;16.20;55.80
63648;DHT22;49792;48.744;9.176;2023-02-26T09:26:03;16.20;55.70
63648;DHT22;49792;48.744;9.176;2023-02-26T09:28:28;16.20;55.80
63648;DHT22;49792;48.744;9.176;2023-02-26T09:30:54;16.20;55.80
63648;DHT22;49792;48.744;9.176;2023-02-26T09:33:20;16.20;55.70
63648;DHT22;49792;48.744;9.176;2023-02-26T09:35:49;16.30;55.70
63648;DHT22;49792;48.744;9.176;2023-02-26T09:38:15;16.20;56.60
63648;DHT22;49792;48.744;9.176;2023-02-26T09:40:49;16.20;55.80
63648;DHT22;49792;48.744;9.176;2023-02-26T09:46:43;16.20;55.70
63648;DHT22;49792;48.744;9.176;2023-02-26T09:48:49;16.20;55.80
63648;DHT22;49792;48.744;9.176;2023-02-26T09:51:18;16.20;55.60
63648;DHT22;49792;48.744;9.176;2023-02-26T09:53:45;16.30;55.90
63648;DHT22;49792;48.744;9.176;2023-02-26T09:56:15;16.30;56.40
63648;DHT22;49792;48.744;9.176;2023-02-26T09:58:41;16.40;56.70
63648;DHT22;49792;48.744;9.176;2023-02-26T10:01:09;16.40;59.40
63648;DHT22;49792;48.744;9.176;2023-02-26T10:03:49;16.40;59.60
63648;DHT22;49792;48.744;9.176;2023-02-26T10:06:35;16.40;59.30
63648;DHT22;49792;48.744;9.176;2023-02-26T10:09:11;16.40;57.60
63648;DHT22;49792;48.744;9.176;2023-02-26T10:11:46;16.40;57.90
63648;DHT22;49792;48.744;9.176;2023-02-26T10:16:41;16.40;59.00
63648;DHT22;49792;48.744;9.176;2023-02-26T10:19:15;16.50;59.30
63648;DHT22;49792;48.744;9.176;2023-02-26T10:21:47;16.40;58.80
63648;DHT22;49792;48.744;9.176;2023-02-26T10:24:21;16.30;57.90
63648;DHT22;49792;48.744;9.176;2023-02-26T10:27:04;16.30;56.70
63648;DHT22;49792;48.744;9.176;2023-02-26T10:29:32;16.20;57.20
63648;DHT22;49792;48.744;9.176;2023-02-26T10:34:55;16.20;57.90
63648;DHT22;49792;48.744;9.176;2023-02-26T10:37:27;16.20;57.70
63648;DHT22;49792;48.744;9.176;2023-02-26T10:40:02;16.20;57.90
63648;DHT22;49792;48.744;9.176;2023-02-26T10:42:38;16.20;58.00
63648;DHT22;49792;48.744;9.176;2023-02-26T10:50:07;16.20;57.60
63648;DHT22;49792;48.744;9.176;2023-02-26T10:52:34;16.20;57.70
63648;DHT22;49792;48.744;9.176;2023-02-26T10:55:03;16.20;57.80
63648;DHT22;49792;48.744;9.176;2023-02-26T10:57:30;16.20;57.90
63648;DHT22;49792;48.744;9.176;2023-02-26T11:00:00;16.20;57.70
63648;DHT22;49792;48.744;9.176;2023-02-26T11:02:31;16.20;57.60
63648;DHT22;49792;48.744;9.176;2023-02-26T11:04:57;16.20;57.60
63648;DHT22;49792;48.744;9.176;2023-02-26T11:07:23;16.40;57.80
63648;DHT22;49792;48.744;9.176;2023-02-26T11:09:52;16.20;57.60
63648;DHT22;49792;48.744;9.176;2023-02-26T11:12:19;16.30;58.00
63648;DHT22;49792;48.744;9.176;2023-02-26T11:14:46;16.30;57.90
63648;DHT22;49792;48.744;9.176;2023-02-26T11:19:39;16.30;57.80
63648;DHT22;49792;48.744;9.176;2023-02-26T11:22:05;16.30;57.70
63648;DHT22;49792;48.744;9.176;2023-02-26T11:24:41;16.30;58.00
63648;DHT22;49792;48.744;9.176;2023-02-26T11:27:13;16.30;57.50
63648;DHT22;49792;48.744;9.176;2023-02-26T11:29:41;16.30;57.40
63648;DHT22;49792;48.744;9.176;2023-02-26T11:32:31;16.30;57.30
63648;DHT22;49792;48.744;9.176;2023-02-26T11:34:57;16.30;56.90
63648;DHT22;49792;48.744;9.176;2023-02-26T11:37:24;16.30;57.30
63648;DHT22;49792;48.744;9.176;2023-02-26T11:39:56;16.20;56.90
63648;DHT22;49792;48.744;9.176;2023-02-26T11:42:22;16.30;57.00
63648;DHT22;49792;48.744;9.176;2023-02-26T11:44:48;16.20;57.00
63648;DHT22;49792;48.744;9.176;2023-02-26T11:47:15;16.30;57.10
63648;DHT22;49792;48.744;9.176;2023-02-26T11:49:43;16.30;57.20
63648;DHT22;49792;48.744;9.176;2023-02-26T11:52:27;16.30;57.20
63648;DHT22;49792;48.744;9.176;2023-02-26T11:54:54;16.20;57.00
63648;DHT22;49792;48.744;9.176;2023-02-26T11:57:25;16.30;57.80
63648;DHT22;49792;48.744;9.176;2023-02-26T11:59:51;16.20;54.10
63648;DHT22;49792;48.744;9.176;2023-02-26T12:02:22;16.10;53.50
63648;DHT22;49792;48.744;9.176;2023-02-26T12:04:49;15.90;49.40
63648;DHT22;49792;48.744;9.176;2023-02-26T12:07:16;15.80;50.40
63648;DHT22;49792;48.744;9.176;2023-02-26T12:09:42;16.00;50.60
63648;DHT22;49792;48.744;9.176;2023-02-26T12:17:43;16.20;49.90
63648;DHT22;49792;48.744;9.176;2023-02-26T12:20:02;16.20;50.80
63648;DHT22;49792;48.744;9.176;2023-02-26T12:25:57;16.20;51.60
63648;DHT22;49792;48.744;9.176;2023-02-26T12:30:54;16.30;53.40
63648;DHT22;49792;48.744;9.176;2023-02-26T12:43:53;16.40;57.60
63648;DHT22;49792;48.744;9.176;2023-02-26T12:46:29;16.40;58.30
63648;DHT22;49792;48.744;9.176;2023-02-26T12:57:00;16.40;54.60
63648;DHT22;49792;48.744;9.176;2023-02-26T12:59:34;16.30;53.50
63648;DHT22;49792;48.744;9.176;2023-02-26T13:02:11;16.30;54.40
63648;DHT22;49792;48.744;9.176;2023-02-26T13:07:39;16.30;53.10
63648;DHT22;49792;48.744;9.176;2023-02-26T13:12:53;16.40;54.10
63648;DHT22;49792;48.744;9.176;2023-02-26T13:21:05;16.40;53.40
63648;DHT22;49792;48.744;9.176;2023-02-26T13:23:32;16.40;53.60
63648;DHT22;49792;48.744;9.176;2023-02-26T13:25:59;16.40;54.10
63648;DHT22;49792;48.744;9.176;2023-02-26T13:31:12;16.50;55.90
63648;DHT22;49792;48.744;9.176;2023-02-26T13:33:40;16.50;55.80
63648;DHT22;49792;48.744;9.176;2023-02-26T13:36:07;16.70;57.40
63648;DHT22;49792;48.744;9.176;2023-02-26T13:38:37;16.70;64.50
63648;DHT22;49792;48.744;9.176;2023-02-26T13:49:19;16.90;65.00
63648;DHT22;49792;48.744;9.176;2023-02-26T13:51:48;17.00;69.00
63648;DHT22;49792;48.744;9.176;2023-02-26T14:06:47;17.40;65.50
63648;DHT22;49792;48.744;9.176;2023-02-26T14:09:56;17.40;63.80
63648;DHT22;49792;48.744;9.176;2023-02-26T14:17:26;17.60;65.10
63648;DHT22;49792;48.744;9.176;2023-02-26T14:22:22;17.30;67.70
63648;DHT22;49792;48.744;9.176;2023-02-26T14:24:54;17.30;67.60
63648;DHT22;49792;48.744;9.176;2023-02-26T14:27:22;17.20;67.30
63648;DHT22;49792;48.744;9.176;2023-02-26T14:34:52;17.30;69.80
63648;DHT22;49792;48.744;9.176;2023-02-26T14:37:23;17.40;69.30
63648;DHT22;49792;48.744;9.176;2023-02-26T14:42:21;17.50;67.60
63648;DHT22;49792;48.744;9.176;2023-02-26T14:44:53;17.60;65.50
63648;DHT22;49792;48.744;9.176;2023-02-26T14:47:22;17.80;64.00
63648;DHT22;49792;48.744;9.176;2023-02-26T14:49:47;18.00;62.40
63648;DHT22;49792;48.744;9.176;2023-02-26T14:52:39;18.00;61.40
63648;DHT22;49792;48.744;9.176;2023-02-26T15:20:41;17.40;59.10
63648;DHT22;49792;48.744;9.176;2023-02-26T15:25:40;17.30;58.70
63648;DHT22;49792;48.744;9.176;2023-02-26T15:28:09;17.30;59.20
63648;DHT22;49792;48.744;9.176;2023-02-26T15:30:36;17.30;59.60
63648;DHT22;49792;48.744;9.176;2023-02-26T15:33:03;17.30;59.80
63648;DHT22;49792;48.744;9.176;2023-02-26T15:35:29;17.20;59.50
63648;DHT22;49792;48.744;9.176;2023-02-26T15:37:57;17.20;59.10
63648;DHT22;49792;48.744;9.176;2023-02-26T15:40:24;17.30;59.20
63648;DHT22;49792;48.744;9.176;2023-02-26T15:42:50;17.40;58.30
63648;DHT22;49792;48.744;9.176;2023-02-26T15:47:50;17.30;58.10
63648;DHT22;49792;48.744;9.176;2023-02-26T15:50:18;17.20;58.20
63648;DHT22;49792;48.744;9.176;2023-02-26T15:52:52;17.10;58.90
63648;DHT22;49792;48.744;9.176;2023-02-26T15:55:20;17.10;58.30
63648;DHT22;49792;48.744;9.176;2023-02-26T15:57:46;17.10;58.30
63648;DHT22;49792;48.744;9.176;2023-02-26T16:00:14;17.10;58.30
63648;DHT22;49792;48.744;9.176;2023-02-26T16:02:41;17.10;59.00
63648;DHT22;49792;48.744;9.176;2023-02-26T16:05:07;17.20;60.30
63648;DHT22;49792;48.744;9.176;2023-02-26T16:07:33;17.30;61.50
63648;DHT22;49792;48.744;9.176;2023-02-26T16:10:03;17.30;62.00
63648;DHT22;49792;48.744;9.176;2023-02-26T16:12:31;17.30;59.90
63648;DHT22;49792;48.744;9.176;2023-02-26T16:14:59;17.30;60.30
63648;DHT22;49792;48.744;9.176;2023-02-26T16:17:29;17.40;60.40
63648;DHT22;49792;48.744;9.176;2023-02-26T16:19:57;17.20;60.40
63648;DHT22;49792;48.744;9.176;2023-02-26T16:24:51;17.30;59.90
63648;DHT22;49792;48.744;9.176;2023-02-26T16:27:18;17.00;59.50
63648;DHT22;49792;48.744;9.176;2023-02-26T16:29:49;17.10;59.50
63648;DHT22;49792;48.744;9.176;2023-02-26T16:32:16;17.20;59.20
63648;DHT22;49792;48.744;9.176;2023-02-26T16:34:52;17.20;59.30
63648;DHT22;49792;48.744;9.176;2023-02-26T16:39:55;17.10;59.50
63648;DHT22;49792;48.744;9.176;2023-02-26T16:45:17;17.00;58.50
63648;DHT22;49792;48.744;9.176;2023-02-26T16:47:45;16.90;57.80
63648;DHT22;49792;48.744;9.176;2023-02-26T16:50:16;16.90;58.50
63648;DHT22;49792;48.744;9.176;2023-02-26T16:52:42;16.90;58.20
63648;DHT22;49792;48.744;9.176;2023-02-26T16:55:12;16.80;58.30
63648;DHT22;49792;48.744;9.176;2023-02-26T16:57:43;16.80;58.10
63648;DHT22;49792;48.744;9.176;2023-02-26T17:00:22;16.80;58.00
63648;DHT22;49792;48.744;9.176;2023-02-26T17:03:31;16.80;57.90
63648;DHT22;49792;48.744;9.176;2023-02-26T17:05:54;16.80;57.80
63648;DHT22;49792;48.744;9.176;2023-02-26T17:08:21;16.80;57.90
63648;DHT22;49792;48.744;9.176;2023-02-26T17:13:15;16.80;57.70
63648;DHT22;49792;48.744;9.176;2023-02-26T17:15:40;16.70;57.30
63648;DHT22;49792;48.744;9.176;2023-02-26T17:18:06;16.70;57.50
63648;DHT22;49792;48.744;9.176;2023-02-26T17:20:34;16.70;57.50
63648;DHT22;49792;48.744;9.176;2023-02-26T17:23:03;16.70;57.50
63648;DHT22;49792;48.744;9.176;2023-02-26T17:25:33;16.70;57.30
63648;DHT22;49792;48.744;9.176;2023-02-26T17:27:59;16.60;57.20
63648;DHT22;49792;48.744;9.176;2023-02-26T17:30:26;16.70;57.20
63648;DHT22;49792;48.744;9.176;2023-02-26T17:32:56;16.70;57.10
63648;DHT22;49792;48.744;9.176;2023-02-26T17:35:22;16.70;57.00
63648;DHT22;49792;48.744;9.176;2023-02-26T17:37:47;16.70;57.00
63648;DHT22;49792;48.744;9.176;2023-02-26T17:40:15;16.70;57.00
63648;DHT22;49792;48.744;9.176;2023-02-26T17:42:41;16.60;56.90
63648;DHT22;49792;48.744;9.176;2023-02-26T17:45:07;16.60;56.80
63648;DHT22;49792;48.744;9.176;2023-02-26T17:47:33;16.60;57.00
63648;DHT22;49792;48.744;9.176;2023-02-26T17:49:59;16.60;56.90
63648;DHT22;49792;48.744;9.176;2023-02-26T17:52:24;16.60;56.60
63648;DHT22;49792;48.744;9.176;2023-02-26T17:54:50;16.50;56.50
63648;DHT22;49792;48.744;9.176;2023-02-26T17:57:17;16.60;56.50
63648;DHT22;49792;48.744;9.176;2023-02-26T17:59:43;16.60;57.00
63648;DHT22;49792;48.744;9.176;2023-02-26T18:02:13;16.70;57.40
63648;DHT22;49792;48.744;9.176;2023-02-26T18:04:40;16.70;57.10
63648;DHT22;49792;48.744;9.176;2023-02-26T18:07:05;16.70;56.70
63648;DHT22;49792;48.744;9.176;2023-02-26T18:09:31;16.70;57.50
63648;DHT22;49792;48.744;9.176;2023-02-26T18:11:56;16.70;56.90
63648;DHT22;49792;48.744;9.176;2023-02-26T18:14:22;16.70;57.30
63648;DHT22;49792;48.744;9.176;2023-02-26T18:16:47;16.70;57.80
63648;DHT22;49792;48.744;9.176;2023-02-26T18:19:13;16.70;56.90
63648;DHT22;49792;48.744;9.176;2023-02-26T18:21:39;16.70;57.10
63648;DHT22;49792;48.744;9.176;2023-02-26T18:24:05;16.70;57.00
63648;DHT22;49792;48.744;9.176;2023-02-26T18:26:38;16.70;56.60
63648;DHT22;49792;48.744;9.176;2023-02-26T18:29:03;16.80;56.10
63648;DHT22;49792;48.744;9.176;2023-02-26T18:31:29;16.80;55.90